sensor_id;sensor_type;location;lat;lon;timestamp;pressure;altitude;pressure_sealevel;temperature;humidity
47536;BME280;33278;50.826;9.030;2022-09-13T00:02:00;98258.06;;;19.81;53.67
47536;BME280;33278;50.826;9.030;2022-09-13T00:04:30;98250.94;;;19.76;53.76
47536;BME280;33278;50.826;9.030;2022-09-13T00:07:00;98253.31;;;19.78;53.97
47536;BME280;33278;50.826;9.030;2022-09-13T00:09:30;98263.00;;;19.79;53.80
47536;BME280;33278;50.826;9.030;2022-09-13T00:12:01;98254.09;;;19.78;53.76
47536;BME280;33278;50.826;9.030;2022-09-13T00:14:31;98250.63;;;19.78;53.92
47536;BME280;33278;50.826;9.030;2022-09-13T00:17:01;98254.44;;;19.77;54.11
47536;BME280;33278;50.826;9.030;2022-09-13T00:19:32;98259.06;;;19.76;53.80
47536;BME280;33278;50.826;9.030;2022-09-13T00:22:03;98248.53;;;19.75;53.85
47536;BME280;33278;50.826;9.030;2022-09-13T00:24:35;98239.66;;;19.74;53.56
47536;BME280;33278;50.826;9.030;2022-09-13T00:27:06;98241.53;;;19.74;53.82
47536;BME280;33278;50.826;9.030;2022-09-13T00:29:36;98232.31;;;19.75;53.90
47536;BME280;33278;50.826;9.030;2022-09-13T00:32:06;98228.84;;;19.74;53.85
47536;BME280;33278;50.826;9.030;2022-09-13T00:34:37;98233.44;;;19.74;53.95
47536;BME280;33278;50.826;9.030;2022-09-13T00:37:07;98223.28;;;19.71;53.89
47536;BME280;33278;50.826;9.030;2022-09-13T00:39:38;98232.16;;;19.71;54.16
47536;BME280;33278;50.826;9.030;2022-09-13T00:42:12;98225.66;;;19.72;54.07
47536;BME280;33278;50.826;9.030;2022-09-13T00:44:52;98199.75;;;19.71;53.74
47536;BME280;33278;50.826;9.030;2022-09-13T00:47:37;98207.06;;;19.71;54.12
47536;BME280;33278;50.826;9.030;2022-09-13T00:52:44;98201.19;;;19.69;53.59
47536;BME280;33278;50.826;9.030;2022-09-13T00:55:25;98195.00;;;19.68;54.06
47536;BME280;33278;50.826;9.030;2022-09-13T00:58:03;98183.38;;;19.68;53.74
47536;BME280;33278;50.826;9.030;2022-09-13T01:00:34;98174.78;;;19.66;53.54
47536;BME280;33278;50.826;9.030;2022-09-13T01:03:09;98169.09;;;19.67;53.53
47536;BME280;33278;50.826;9.030;2022-09-13T01:05:44;98167.81;;;19.65;53.79
47536;BME280;33278;50.826;9.030;2022-09-13T01:08:16;98174.78;;;19.66;53.89
47536;BME280;33278;50.826;9.030;2022-09-13T01:10:52;98174.34;;;19.64;53.93
47536;BME280;33278;50.826;9.030;2022-09-13T01:13:27;98174.00;;;19.65;53.74
47536;BME280;33278;50.826;9.030;2022-09-13T01:15:59;98181.34;;;19.65;53.74
47536;BME280;33278;50.826;9.030;2022-09-13T01:18:29;98185.94;;;19.64;54.04
47536;BME280;33278;50.826;9.030;2022-09-13T01:23:59;98188.97;;;19.63;53.43
47536;BME280;33278;50.826;9.030;2022-09-13T01:38:31;98181.50;;;19.59;53.62
47536;BME280;33278;50.826;9.030;2022-09-13T01:41:09;98175.31;;;19.59;53.87
47536;BME280;33278;50.826;9.030;2022-09-13T01:51:52;98171.34;;;19.56;53.35
47536;BME280;33278;50.826;9.030;2022-09-13T01:54:38;98157.03;;;19.56;53.91
47536;BME280;33278;50.826;9.030;2022-09-13T01:57:16;98155.44;;;19.55;53.83
47536;BME280;33278;50.826;9.030;2022-09-13T01:59:52;98154.66;;;19.54;53.59
47536;BME280;33278;50.826;9.030;2022-09-13T02:05:15;98149.25;;;19.54;53.78
47536;BME280;33278;50.826;9.030;2022-09-13T02:07:54;98144.47;;;19.51;53.57
47536;BME280;33278;50.826;9.030;2022-09-13T02:10:34;98140.03;;;19.55;53.57
47536;BME280;33278;50.826;9.030;2022-09-13T02:13:13;98143.06;;;19.54;53.67
47536;BME280;33278;50.826;9.030;2022-09-13T02:15:48;98154.16;;;19.52;54.02
47536;BME280;33278;50.826;9.030;2022-09-13T02:18:26;98155.59;;;19.50;53.71
47536;BME280;33278;50.826;9.030;2022-09-13T02:21:24;98155.41;;;19.64;53.73
47536;BME280;33278;50.826;9.030;2022-09-13T02:24:02;98148.22;;;19.76;54.41
47536;BME280;33278;50.826;9.030;2022-09-13T02:26:36;98145.56;;;19.59;54.93
47536;BME280;33278;50.826;9.030;2022-09-13T02:29:12;98150.03;;;19.55;55.11
47536;BME280;33278;50.826;9.030;2022-09-13T02:31:54;98146.06;;;19.52;55.69
47536;BME280;33278;50.826;9.030;2022-09-13T02:34:31;98150.66;;;19.60;55.52
47536;BME280;33278;50.826;9.030;2022-09-13T02:37:06;98150.94;;;19.76;55.38
47536;BME280;33278;50.826;9.030;2022-09-13T02:39:43;98159.72;;;19.65;55.73
47536;BME280;33278;50.826;9.030;2022-09-13T02:42:19;98170.19;;;19.66;55.80
47536;BME280;33278;50.826;9.030;2022-09-13T02:44:52;98167.81;;;19.65;56.03
47536;BME280;33278;50.826;9.030;2022-09-13T02:50:35;98172.94;;;19.57;55.69
47536;BME280;33278;50.826;9.030;2022-09-13T02:53:21;98172.44;;;19.55;55.96
47536;BME280;33278;50.826;9.030;2022-09-13T02:59:20;98178.81;;;19.51;56.21
47536;BME280;33278;50.826;9.030;2022-09-13T03:02:02;98178.00;;;19.50;55.56
47536;BME280;33278;50.826;9.030;2022-09-13T03:04:34;98185.66;;;19.48;55.76
47536;BME280;33278;50.826;9.030;2022-09-13T03:07:13;98174.84;;;19.48;55.92
47536;BME280;33278;50.826;9.030;2022-09-13T03:09:50;98178.81;;;19.51;55.69
47536;BME280;33278;50.826;9.030;2022-09-13T03:12:49;98172.94;;;19.49;55.71
47536;BME280;33278;50.826;9.030;2022-09-13T03:21:36;98177.56;;;19.48;55.83
47536;BME280;33278;50.826;9.030;2022-09-13T03:24:14;98166.75;;;19.48;55.54
47536;BME280;33278;50.826;9.030;2022-09-13T03:35:22;98147.34;;;19.46;55.83
47536;BME280;33278;50.826;9.030;2022-09-13T03:38:02;98153.09;;;19.44;55.61
47536;BME280;33278;50.826;9.030;2022-09-13T03:40:48;98146.56;;;19.45;55.76
47536;BME280;33278;50.826;9.030;2022-09-13T03:43:26;98143.06;;;19.45;55.49
47536;BME280;33278;50.826;9.030;2022-09-13T03:46:08;98141.47;;;19.44;55.87
47536;BME280;33278;50.826;9.030;2022-09-13T03:48:41;98135.28;;;19.43;55.76
47536;BME280;33278;50.826;9.030;2022-09-13T03:51:13;98147.97;;;19.43;55.97
47536;BME280;33278;50.826;9.030;2022-09-13T03:53:57;98144.50;;;19.42;55.54
47536;BME280;33278;50.826;9.030;2022-09-13T03:56:30;98147.97;;;19.43;55.91
47536;BME280;33278;50.826;9.030;2022-09-13T03:59:00;98150.69;;;19.43;55.69
47536;BME280;33278;50.826;9.030;2022-09-13T04:01:30;98153.38;;;19.43;55.80
47536;BME280;33278;50.826;9.030;2022-09-13T04:04:00;98151.00;;;19.41;55.43
47536;BME280;33278;50.826;9.030;2022-09-13T04:06:31;98149.13;;;19.42;55.69
47536;BME280;33278;50.826;9.030;2022-09-13T04:09:01;98150.69;;;19.43;55.71
47536;BME280;33278;50.826;9.030;2022-09-13T04:11:31;98156.91;;;19.43;55.70
47536;BME280;33278;50.826;9.030;2022-09-13T04:14:02;98158.78;;;19.43;55.87
47536;BME280;33278;50.826;9.030;2022-09-13T04:16:34;98158.78;;;19.43;55.68
47536;BME280;33278;50.826;9.030;2022-09-13T04:19:04;98153.72;;;19.41;55.50
47536;BME280;33278;50.826;9.030;2022-09-13T04:21:34;98154.53;;;19.42;55.45
47536;BME280;33278;50.826;9.030;2022-09-13T04:24:05;98157.22;;;19.42;55.43
47536;BME280;33278;50.826;9.030;2022-09-13T04:26:35;98152.94;;;19.41;55.68
47536;BME280;33278;50.826;9.030;2022-09-13T04:29:06;98147.84;;;19.39;55.69
47536;BME280;33278;50.826;9.030;2022-09-13T04:31:36;98145.47;;;19.38;55.69
47536;BME280;33278;50.826;9.030;2022-09-13T04:34:06;98138.94;;;19.39;55.85
47536;BME280;33278;50.826;9.030;2022-09-13T04:36:37;98139.72;;;19.39;55.57
47536;BME280;33278;50.826;9.030;2022-09-13T04:39:08;98140.53;;;19.40;55.78
47536;BME280;33278;50.826;9.030;2022-09-13T04:41:43;98138.94;;;19.39;55.84
47536;BME280;33278;50.826;9.030;2022-09-13T04:44:17;98143.56;;;19.38;55.79
47536;BME280;33278;50.826;9.030;2022-09-13T04:46:47;98142.44;;;19.39;56.03
47536;BME280;33278;50.826;9.030;2022-09-13T04:49:18;98142.44;;;19.39;55.71
47536;BME280;33278;50.826;9.030;2022-09-13T04:51:52;98136.25;;;19.39;55.81
47536;BME280;33278;50.826;9.030;2022-09-13T04:54:22;98135.13;;;19.40;55.94
47536;BME280;33278;50.826;9.030;2022-09-13T04:56:52;98134.66;;;19.38;55.82
47536;BME280;33278;50.826;9.030;2022-09-13T04:59:23;98136.25;;;19.39;55.57
47536;BME280;33278;50.826;9.030;2022-09-13T05:01:53;98131.19;;;19.37;55.59
47536;BME280;33278;50.826;9.030;2022-09-13T05:04:25;98119.13;;;19.35;56.07
47536;BME280;33278;50.826;9.030;2022-09-13T05:06:55;98122.59;;;19.35;56.03
47536;BME280;33278;50.826;9.030;2022-09-13T05:09:26;98122.25;;;19.37;55.79
47536;BME280;33278;50.826;9.030;2022-09-13T05:11:57;98121.47;;;19.36;55.66
47536;BME280;33278;50.826;9.030;2022-09-13T05:14:27;98117.97;;;19.36;55.82
47536;BME280;33278;50.826;9.030;2022-09-13T05:16:57;98116.41;;;19.35;55.76
47536;BME280;33278;50.826;9.030;2022-09-13T05:19:27;98126.06;;;19.36;56.14
47536;BME280;33278;50.826;9.030;2022-09-13T05:21:58;98123.84;;;19.38;55.69
47536;BME280;33278;50.826;9.030;2022-09-13T05:24:28;98122.59;;;19.35;55.79
47536;BME280;33278;50.826;9.030;2022-09-13T05:26:58;98130.38;;;19.37;56.15
47536;BME280;33278;50.826;9.030;2022-09-13T05:29:28;98129.59;;;19.36;56.12
47536;BME280;33278;50.826;9.030;2022-09-13T05:31:59;98124.50;;;19.35;55.71
47536;BME280;33278;50.826;9.030;2022-09-13T05:34:29;98128.00;;;19.35;56.08
47536;BME280;33278;50.826;9.030;2022-09-13T05:36:59;98127.66;;;19.37;55.79
47536;BME280;33278;50.826;9.030;2022-09-13T05:39:30;98126.06;;;19.36;55.56
47536;BME280;33278;50.826;9.030;2022-09-13T05:42:00;98125.28;;;19.35;55.93
47536;BME280;33278;50.826;9.030;2022-09-13T05:44:30;98121.81;;;19.35;55.90
47536;BME280;33278;50.826;9.030;2022-09-13T05:47:00;98119.13;;;19.35;56.13
47536;BME280;33278;50.826;9.030;2022-09-13T05:49:31;98112.13;;;19.34;56.17
47536;BME280;33278;50.826;9.030;2022-09-13T05:52:01;98113.72;;;19.35;56.06
47536;BME280;33278;50.826;9.030;2022-09-13T05:54:31;98121.34;;;19.33;55.94
47536;BME280;33278;50.826;9.030;2022-09-13T05:57:03;98127.22;;;19.35;56.01
47536;BME280;33278;50.826;9.030;2022-09-13T05:59:33;98130.22;;;19.33;55.94
47536;BME280;33278;50.826;9.030;2022-09-13T06:02:03;98120.22;;;19.34;55.77
47536;BME280;33278;50.826;9.030;2022-09-13T06:04:34;98130.22;;;19.33;55.76
47536;BME280;33278;50.826;9.030;2022-09-13T06:07:04;98132.63;;;19.35;56.02
47536;BME280;33278;50.826;9.030;2022-09-13T06:09:34;98132.63;;;19.35;55.93
47536;BME280;33278;50.826;9.030;2022-09-13T06:12:05;98135.00;;;19.36;55.92
47536;BME280;33278;50.826;9.030;2022-09-13T06:14:35;98140.72;;;19.35;56.08
47536;BME280;33278;50.826;9.030;2022-09-13T06:17:06;98135.31;;;19.35;55.88
47536;BME280;33278;50.826;9.030;2022-09-13T06:19:36;98139.91;;;19.34;56.07
47536;BME280;33278;50.826;9.030;2022-09-13T06:22:06;98138.03;;;19.35;55.73
47536;BME280;33278;50.826;9.030;2022-09-13T06:24:36;98142.28;;;19.36;55.87
47536;BME280;33278;50.826;9.030;2022-09-13T06:27:07;98138.81;;;19.35;56.20
47536;BME280;33278;50.826;9.030;2022-09-13T06:29:39;98142.75;;;19.38;55.93
47536;BME280;33278;50.826;9.030;2022-09-13T06:32:09;98147.84;;;19.39;56.03
47536;BME280;33278;50.826;9.030;2022-09-13T06:34:40;98150.53;;;19.39;55.84
47536;BME280;33278;50.826;9.030;2022-09-13T06:37:10;98154.81;;;19.40;55.69
47536;BME280;33278;50.826;9.030;2022-09-13T06:39:40;98158.34;;;19.41;55.81
47536;BME280;33278;50.826;9.030;2022-09-13T06:42:11;98167.56;;;19.40;56.13
47536;BME280;33278;50.826;9.030;2022-09-13T06:44:41;98155.50;;;19.37;56.28
47536;BME280;33278;50.826;9.030;2022-09-13T06:47:11;98151.34;;;19.40;56.28
47536;BME280;33278;50.826;9.030;2022-09-13T06:49:42;98158.63;;;19.39;56.13
47536;BME280;33278;50.826;9.030;2022-09-13T06:52:12;98158.63;;;19.39;56.13
47536;BME280;33278;50.826;9.030;2022-09-13T06:54:42;98150.38;;;19.36;55.96
47536;BME280;33278;50.826;9.030;2022-09-13T06:57:13;98144.34;;;19.39;55.96
47536;BME280;33278;50.826;9.030;2022-09-13T06:59:43;98147.06;;;19.39;55.86
47536;BME280;33278;50.826;9.030;2022-09-13T07:02:13;98146.28;;;19.38;56.06
47536;BME280;33278;50.826;9.030;2022-09-13T07:04:44;98149.75;;;19.39;56.22
47536;BME280;33278;50.826;9.030;2022-09-13T07:07:14;98161.34;;;19.39;56.27
47536;BME280;33278;50.826;9.030;2022-09-13T07:09:44;98158.34;;;19.41;56.09
47536;BME280;33278;50.826;9.030;2022-09-13T07:12:15;98158.97;;;19.38;56.10
47536;BME280;33278;50.826;9.030;2022-09-13T07:14:45;98156.59;;;19.36;55.82
47536;BME280;33278;50.826;9.030;2022-09-13T07:17:15;98151.81;;;19.42;56.23
47536;BME280;33278;50.826;9.030;2022-09-13T07:19:45;98144.84;;;19.41;55.92
47536;BME280;33278;50.826;9.030;2022-09-13T07:22:16;98143.25;;;19.40;55.98
47536;BME280;33278;50.826;9.030;2022-09-13T07:24:46;98136.56;;;19.37;56.04
47536;BME280;33278;50.826;9.030;2022-09-13T07:27:16;98131.97;;;19.38;56.39
47536;BME280;33278;50.826;9.030;2022-09-13T07:29:46;98132.44;;;19.40;55.89
47536;BME280;33278;50.826;9.030;2022-09-13T07:32:17;98137.84;;;19.40;56.30
47536;BME280;33278;50.826;9.030;2022-09-13T07:34:48;98129.75;;;19.40;55.83
47536;BME280;33278;50.826;9.030;2022-09-13T07:37:19;98130.50;;;19.40;55.81
47536;BME280;33278;50.826;9.030;2022-09-13T07:39:49;98130.50;;;19.40;55.81
47536;BME280;33278;50.826;9.030;2022-09-13T07:42:19;98127.50;;;19.42;56.17
47536;BME280;33278;50.826;9.030;2022-09-13T07:44:50;98125.94;;;19.41;56.33
47536;BME280;33278;50.826;9.030;2022-09-13T07:47:20;98121.31;;;19.41;56.21
47536;BME280;33278;50.826;9.030;2022-09-13T07:49:50;98116.72;;;19.42;55.87
47536;BME280;33278;50.826;9.030;2022-09-13T07:52:20;98117.50;;;19.42;55.89
47536;BME280;33278;50.826;9.030;2022-09-13T07:54:51;98122.13;;;19.42;56.08
47536;BME280;33278;50.826;9.030;2022-09-13T07:57:21;98130.22;;;19.42;56.28
47536;BME280;33278;50.826;9.030;2022-09-13T07:59:51;98122.13;;;19.42;56.30
47536;BME280;33278;50.826;9.030;2022-09-13T08:02:21;98130.22;;;19.42;56.09
47536;BME280;33278;50.826;9.030;2022-09-13T08:04:52;98126.84;;;19.45;55.71
47536;BME280;33278;50.826;9.030;2022-09-13T08:07:22;98127.34;;;19.47;55.79
47536;BME280;33278;50.826;9.030;2022-09-13T08:09:52;98138.13;;;19.47;55.68
47536;BME280;33278;50.826;9.030;2022-09-13T08:12:25;98147.34;;;19.46;55.90
47536;BME280;33278;50.826;9.030;2022-09-13T08:14:55;98149.28;;;19.45;56.23
47536;BME280;33278;50.826;9.030;2022-09-13T08:17:25;98155.13;;;19.48;56.09
47536;BME280;33278;50.826;9.030;2022-09-13T08:19:56;98152.91;;;19.50;56.05
47536;BME280;33278;50.826;9.030;2022-09-13T08:22:26;98154.84;;;19.49;55.85
47536;BME280;33278;50.826;9.030;2022-09-13T08:24:56;98152.44;;;19.48;55.83
47536;BME280;33278;50.826;9.030;2022-09-13T08:27:27;98155.94;;;19.48;55.76
47536;BME280;33278;50.826;9.030;2022-09-13T08:29:58;98157.53;;;19.49;56.17
47536;BME280;33278;50.826;9.030;2022-09-13T08:32:28;98162.13;;;19.49;55.94
47536;BME280;33278;50.826;9.030;2022-09-13T08:34:58;98162.59;;;19.51;56.21
47536;BME280;33278;50.826;9.030;2022-09-13T08:37:28;98164.97;;;19.52;55.89
47536;BME280;33278;50.826;9.030;2022-09-13T08:40:00;98157.97;;;19.51;55.68
47536;BME280;33278;50.826;9.030;2022-09-13T08:42:46;98160.84;;;19.55;55.71
47536;BME280;33278;50.826;9.030;2022-09-13T08:45:19;98156.38;;;19.59;55.78
47536;BME280;33278;50.826;9.030;2022-09-13T08:47:56;98163.69;;;19.58;55.98
47536;BME280;33278;50.826;9.030;2022-09-13T08:50:30;98157.34;;;19.54;55.49
47536;BME280;33278;50.826;9.030;2022-09-13T08:53:18;98164.34;;;19.55;55.90
47536;BME280;33278;50.826;9.030;2022-09-13T08:56:03;98169.25;;;19.53;56.05
47536;BME280;33278;50.826;9.030;2022-09-13T09:08:13;98157.03;;;19.56;55.45
47536;BME280;33278;50.826;9.030;2022-09-13T09:10:49;98153.22;;;19.57;55.53
47536;BME280;33278;50.826;9.030;2022-09-13T09:13:36;98150.50;;;19.57;55.70
47536;BME280;33278;50.826;9.030;2022-09-13T09:19:38;98150.19;;;19.58;55.53
47536;BME280;33278;50.826;9.030;2022-09-13T09:22:14;98149.38;;;19.58;55.39
47536;BME280;33278;50.826;9.030;2022-09-13T09:24:48;98141.28;;;19.58;55.14
47536;BME280;33278;50.826;9.030;2022-09-13T09:27:20;98145.56;;;19.59;55.03
47536;BME280;33278;50.826;9.030;2022-09-13T09:29:53;98146.34;;;19.59;55.52
47536;BME280;33278;50.826;9.030;2022-09-13T09:32:48;98149.88;;;19.60;55.19
47536;BME280;33278;50.826;9.030;2022-09-13T09:35:27;98146.06;;;19.61;54.97
47536;BME280;33278;50.826;9.030;2022-09-13T09:41:04;98143.34;;;19.61;55.26
47536;BME280;33278;50.826;9.030;2022-09-13T09:43:46;98140.66;;;19.61;55.16
47536;BME280;33278;50.826;9.030;2022-09-13T09:46:20;98129.84;;;19.61;55.08
47536;BME280;33278;50.826;9.030;2022-09-13T09:48:55;98129.84;;;19.61;55.29
47536;BME280;33278;50.826;9.030;2022-09-13T09:51:27;98127.16;;;19.61;55.13
47536;BME280;33278;50.826;9.030;2022-09-13T09:54:01;98117.13;;;19.61;54.90
47536;BME280;33278;50.826;9.030;2022-09-13T09:56:34;98123.31;;;19.62;54.80
47536;BME280;33278;50.826;9.030;2022-09-13T09:59:24;98112.81;;;19.60;54.93
47536;BME280;33278;50.826;9.030;2022-09-13T10:01:54;98103.94;;;19.60;54.66
47536;BME280;33278;50.826;9.030;2022-09-13T10:04:27;98106.31;;;19.61;54.72
47536;BME280;33278;50.826;9.030;2022-09-13T10:08:23;98105.97;;;19.63;54.62
47536;BME280;33278;50.826;9.030;2022-09-13T10:12:54;98110.59;;;19.63;54.60
47536;BME280;33278;50.826;9.030;2022-09-13T10:15:28;98105.97;;;19.63;54.81
47536;BME280;33278;50.826;9.030;2022-09-13T10:18:13;98099.78;;;19.63;54.83
47536;BME280;33278;50.826;9.030;2022-09-13T10:23:47;98097.88;;;19.63;54.61
47536;BME280;33278;50.826;9.030;2022-09-13T10:26:19;98096.75;;;19.64;54.72
47536;BME280;33278;50.826;9.030;2022-09-13T10:31:27;98097.56;;;19.65;54.89
47536;BME280;33278;50.826;9.030;2022-09-13T10:34:01;98093.28;;;19.64;55.06
47536;BME280;33278;50.826;9.030;2022-09-13T10:36:34;98103.75;;;19.65;54.71
47536;BME280;33278;50.826;9.030;2022-09-13T10:39:17;98109.94;;;19.66;54.63
47536;BME280;33278;50.826;9.030;2022-09-13T10:41:58;98108.03;;;19.66;54.74
47536;BME280;33278;50.826;9.030;2022-09-13T10:44:33;98101.81;;;19.66;54.98
47536;BME280;33278;50.826;9.030;2022-09-13T10:47:10;98101.81;;;19.66;55.02
47536;BME280;33278;50.826;9.030;2022-09-13T10:49:50;98094.53;;;19.66;54.87
47536;BME280;33278;50.826;9.030;2022-09-13T10:57:52;98099.13;;;19.66;54.83
47536;BME280;33278;50.826;9.030;2022-09-13T11:06:21;98102.31;;;19.68;54.83
47536;BME280;33278;50.826;9.030;2022-09-13T11:11:53;98100.41;;;19.68;54.71
47536;BME280;33278;50.826;9.030;2022-09-13T11:14:38;98096.13;;;19.67;54.83
47536;BME280;33278;50.826;9.030;2022-09-13T11:20:16;98101.19;;;19.69;54.95
47536;BME280;33278;50.826;9.030;2022-09-13T11:28:39;98101.19;;;19.69;55.03
47536;BME280;33278;50.826;9.030;2022-09-13T11:31:41;98091.19;;;19.69;54.55
47536;BME280;33278;50.826;9.030;2022-09-13T11:42:37;98078.13;;;19.71;54.54
47536;BME280;33278;50.826;9.030;2022-09-13T11:45:18;98070.81;;;19.72;54.61
47536;BME280;33278;50.826;9.030;2022-09-13T11:51:07;98055.72;;;19.71;54.62
47536;BME280;33278;50.826;9.030;2022-09-13T11:54:00;98057.31;;;19.72;54.61
47536;BME280;33278;50.826;9.030;2022-09-13T11:56:39;98055.41;;;19.72;54.55
47536;BME280;33278;50.826;9.030;2022-09-13T12:01:46;98056.19;;;19.73;54.82
47536;BME280;33278;50.826;9.030;2022-09-13T12:04:56;98044.59;;;19.72;54.41
47536;BME280;33278;50.826;9.030;2022-09-13T12:07:47;98038.84;;;19.74;54.86
47536;BME280;33278;50.826;9.030;2022-09-13T12:10:26;98036.47;;;19.72;54.74
47536;BME280;33278;50.826;9.030;2022-09-13T12:13:01;98035.69;;;19.72;54.63
47536;BME280;33278;50.826;9.030;2022-09-13T12:15:36;98037.28;;;19.73;54.26
47536;BME280;33278;50.826;9.030;2022-09-13T12:18:42;98031.06;;;19.72;54.55
47536;BME280;33278;50.826;9.030;2022-09-13T12:21:16;98025.66;;;19.72;54.77
47536;BME280;33278;50.826;9.030;2022-09-13T12:26:42;98014.84;;;19.72;54.61
47536;BME280;33278;50.826;9.030;2022-09-13T12:29:22;98018.38;;;19.73;54.59
47536;BME280;33278;50.826;9.030;2022-09-13T12:32:02;98024.56;;;19.73;54.21
47536;BME280;33278;50.826;9.030;2022-09-13T12:34:50;98015.66;;;19.73;54.78
47536;BME280;33278;50.826;9.030;2022-09-13T12:46:26;98005.63;;;19.73;54.84
47536;BME280;33278;50.826;9.030;2022-09-13T12:49:24;97988.63;;;19.73;54.31
47536;BME280;33278;50.826;9.030;2022-09-13T12:55:05;97989.41;;;19.73;54.59
47536;BME280;33278;50.826;9.030;2022-09-13T13:00:46;97984.00;;;19.73;54.48
47536;BME280;33278;50.826;9.030;2022-09-13T13:03:31;97985.94;;;19.73;54.48
47536;BME280;33278;50.826;9.030;2022-09-13T13:06:16;97991.34;;;19.73;54.73
47536;BME280;33278;50.826;9.030;2022-09-13T13:08:51;97980.53;;;19.73;54.67
47536;BME280;33278;50.826;9.030;2022-09-13T13:11:22;97981.31;;;19.73;54.18
47536;BME280;33278;50.826;9.030;2022-09-13T13:13:56;97983.22;;;19.73;54.57
47536;BME280;33278;50.826;9.030;2022-09-13T13:16:34;97985.94;;;19.73;54.44
47536;BME280;33278;50.826;9.030;2022-09-13T13:19:32;97977.81;;;19.73;54.66
47536;BME280;33278;50.826;9.030;2022-09-13T13:27:59;97970.84;;;19.72;54.42
47536;BME280;33278;50.826;9.030;2022-09-13T13:30:39;97968.91;;;19.72;54.50
47536;BME280;33278;50.826;9.030;2022-09-13T13:35:40;97968.91;;;19.72;54.36
47536;BME280;33278;50.826;9.030;2022-09-13T13:40:47;97960.03;;;19.72;54.63
47536;BME280;33278;50.826;9.030;2022-09-13T13:46:23;97951.91;;;19.72;54.42
47536;BME280;33278;50.826;9.030;2022-09-13T13:48:54;97962.72;;;19.72;54.28
47536;BME280;33278;50.826;9.030;2022-09-13T13:51:27;97963.84;;;19.71;54.47
47536;BME280;33278;50.826;9.030;2022-09-13T13:54:02;97959.69;;;19.73;54.40
47536;BME280;33278;50.826;9.030;2022-09-13T13:59:29;97967.78;;;19.73;54.27
47536;BME280;33278;50.826;9.030;2022-09-13T14:02:00;97964.31;;;19.73;54.48
47536;BME280;33278;50.826;9.030;2022-09-13T14:05:07;97959.22;;;19.71;54.57
47536;BME280;33278;50.826;9.030;2022-09-13T14:13:53;97951.91;;;19.72;54.54
47536;BME280;33278;50.826;9.030;2022-09-13T14:19:16;97953.50;;;19.73;54.32
47536;BME280;33278;50.826;9.030;2022-09-13T14:24:45;97950.34;;;19.71;54.83
47536;BME280;33278;50.826;9.030;2022-09-13T14:27:34;97944.94;;;19.71;54.34
47536;BME280;33278;50.826;9.030;2022-09-13T14:30:26;97950.00;;;19.72;54.37
47536;BME280;33278;50.826;9.030;2022-09-13T14:32:59;97941.09;;;19.72;54.63
47536;BME280;33278;50.826;9.030;2022-09-13T14:35:32;97936.47;;;19.72;54.56
47536;BME280;33278;50.826;9.030;2022-09-13T14:38:19;97939.53;;;19.71;54.59
47536;BME280;33278;50.826;9.030;2022-09-13T14:40:52;97927.59;;;19.72;54.29
47536;BME280;33278;50.826;9.030;2022-09-13T14:43:25;97933.00;;;19.72;54.34
47536;BME280;33278;50.826;9.030;2022-09-13T14:46:01;97930.31;;;19.72;54.74
47536;BME280;33278;50.826;9.030;2022-09-13T14:48:41;97928.38;;;19.72;54.72
47536;BME280;33278;50.826;9.030;2022-09-13T14:51:25;97924.91;;;19.72;54.61
47536;BME280;33278;50.826;9.030;2022-09-13T14:54:07;97924.91;;;19.72;54.41
47536;BME280;33278;50.826;9.030;2022-09-13T14:56:45;97920.28;;;19.72;54.51
47536;BME280;33278;50.826;9.030;2022-09-13T14:59:24;97923.31;;;19.71;54.56
47536;BME280;33278;50.826;9.030;2022-09-13T15:01:56;97923.31;;;19.71;54.34
47536;BME280;33278;50.826;9.030;2022-09-13T15:04:27;97922.19;;;19.72;54.56
47536;BME280;33278;50.826;9.030;2022-09-13T15:07:29;97917.91;;;19.71;54.70
47536;BME280;33278;50.826;9.030;2022-09-13T15:12:48;97911.69;;;19.70;54.25
47536;BME280;33278;50.826;9.030;2022-09-13T15:18:21;97916.31;;;19.70;54.39
47536;BME280;33278;50.826;9.030;2022-09-13T15:20:57;97906.63;;;19.69;54.58
47536;BME280;33278;50.826;9.030;2022-09-13T15:23:32;97908.22;;;19.70;54.41
47536;BME280;33278;50.826;9.030;2022-09-13T15:26:09;97912.16;;;19.72;54.63
47536;BME280;33278;50.826;9.030;2022-09-13T15:31:19;97919.50;;;19.72;54.52
47536;BME280;33278;50.826;9.030;2022-09-13T15:39:48;97910.91;;;19.70;54.40
47536;BME280;33278;50.826;9.030;2022-09-13T15:42:19;97909.78;;;19.71;54.26
47536;BME280;33278;50.826;9.030;2022-09-13T15:44:49;97910.91;;;19.70;54.55
47536;BME280;33278;50.826;9.030;2022-09-13T15:47:19;97909.78;;;19.71;54.69
47536;BME280;33278;50.826;9.030;2022-09-13T15:49:51;97905.50;;;19.70;54.74
47536;BME280;33278;50.826;9.030;2022-09-13T15:52:21;97908.22;;;19.70;54.23
47536;BME280;33278;50.826;9.030;2022-09-13T15:54:52;97906.28;;;19.70;54.27
47536;BME280;33278;50.826;9.030;2022-09-13T15:57:25;97907.34;;;19.78;54.85
47536;BME280;33278;50.826;9.030;2022-09-13T15:59:56;97909.38;;;19.90;54.25
47536;BME280;33278;50.826;9.030;2022-09-13T16:02:30;97901.66;;;20.01;54.34
47536;BME280;33278;50.826;9.030;2022-09-13T16:05:01;97899.59;;;19.98;54.29
47536;BME280;33278;50.826;9.030;2022-09-13T16:07:31;97888.00;;;19.97;54.69
47536;BME280;33278;50.826;9.030;2022-09-13T16:10:01;97897.34;;;20.00;55.12
47536;BME280;33278;50.826;9.030;2022-09-13T16:12:32;97896.69;;;20.03;55.11
47536;BME280;33278;50.826;9.030;2022-09-13T16:15:03;97887.44;;;20.04;54.80
47536;BME280;33278;50.826;9.030;2022-09-13T16:17:33;97890.75;;;20.09;55.08
47536;BME280;33278;50.826;9.030;2022-09-13T16:20:04;97892.78;;;20.13;54.86
47536;BME280;33278;50.826;9.030;2022-09-13T16:22:36;97898.66;;;20.15;54.99
47536;BME280;33278;50.826;9.030;2022-09-13T16:25:08;97902.19;;;20.28;55.12
47536;BME280;33278;50.826;9.030;2022-09-13T16:27:39;97896.25;;;20.34;54.94
47536;BME280;33278;50.826;9.030;2022-09-13T16:30:16;97894.19;;;20.31;54.66
47536;BME280;33278;50.826;9.030;2022-09-13T16:32:47;97894.94;;;20.19;55.27